| time (UTC) | temp F | wind direction | speed MPH | gust MPH | rain 1hr in | rain 24hr in | rain mn in | humidity % | barometer mb |
| 20260831052436 | 72 | 33 | 8.0 | 14.0 | 0.00 | 0.00 | 0.00 | 22 | 1025.3 |
| 20260831051537 | 72 | 45 | 6.0 | 11.0 | 0.00 | 0.00 | 0.00 | 23 | 1025.4 |
| 20260831050636 | 72 | 27 | 7.0 | 13.0 | 0.00 | 0.00 | 0.00 | 24 | 1025.5 |
| 20260831045736 | 73 | 25 | 6.0 | 11.0 | 0.00 | 0.00 | 0.00 | 24 | 1025.6 |
| 20260831044836 | 73 | 33 | 8.0 | 18.0 | 0.00 | 0.00 | 0.00 | 21 | 1025.7 |
| 20260831043936 | 73 | 28 | 6.0 | 13.0 | 0.00 | 0.00 | 0.00 | 22 | 1025.9 |
| 20260831043036 | 72 | 24 | 5.0 | 13.0 | 0.00 | 0.00 | 0.00 | 23 | 1026.1 |
| 20260831042136 | 74 | 3 | 8.0 | 14.0 | 0.00 | 0.00 | 0.00 | 23 | 1026.2 |
| 20260831040336 | 74 | 18 | 6.0 | 13.0 | 0.00 | 0.00 | 0.00 | 23 | 1026.5 |
| 20260831035435 | 73 | 42 | 5.0 | 10.0 | 0.00 | 0.00 | 0.00 | 25 | 1026.7 |
| 20260831034535 | 73 | 16 | 6.0 | 10.0 | 0.00 | 0.00 | 0.00 | 23 | 1027.1 |
| 20260831033635 | 73 | 354 | 6.0 | 12.0 | 0.00 | 0.00 | 0.00 | 24 | 1027.3 |
| 20260831032736 | 74 | 47 | 6.0 | 13.0 | 0.00 | 0.00 | 0.00 | 28 | 1027.4 |
| 20260831031836 | 73 | 13 | 5.0 | 12.0 | 0.00 | 0.00 | 0.00 | 28 | 1027.7 |
| 20260831030935 | 74 | 354 | 4.0 | 10.0 | 0.00 | 0.00 | 0.00 | 30 | 1027.8 |
| 20260831030035 | 73 | 356 | 6.0 | 12.0 | 0.00 | 0.00 | 0.00 | 29 | 1028.1 |
| 20260831025135 | 73 | 16 | 7.0 | 12.0 | 0.00 | 0.00 | 0.00 | 30 | 1028.2 |
| 20260831024235 | 73 | 339 | 6.0 | 15.0 | 0.00 | 0.00 | 0.00 | 29 | 1028.4 |
| 20260831022437 | 71 | 12 | 5.0 | 11.0 | 0.00 | 0.00 | 0.00 | 36 | 1028.8 |
| 20260831021535 | 71 | 10 | 5.0 | 13.0 | 0.00 | 0.00 | 0.00 | 35 | 1028.9 |
| 20260831020635 | 71 | 357 | 3.0 | 13.0 | 0.00 | 0.00 | 0.00 | 35 | 1029.0 |
| 20260831015735 | 70 | 334 | 3.0 | 8.0 | 0.00 | 0.00 | 0.00 | 38 | 1029.2 |
| 20260831014835 | 70 | 293 | 3.0 | 8.0 | 0.00 | 0.00 | 0.00 | 38 | 1029.3 |
| 20260831013935 | 69 | 301 | 3.0 | 5.0 | 0.00 | 0.00 | 0.00 | 40 | 1029.5 |
| 20260831013035 | 69 | 303 | 2.0 | 6.0 | 0.00 | 0.00 | 0.00 | 40 | 1029.7 |
| 20260831012135 | 68 | 302 | 3.0 | 7.0 | 0.00 | 0.00 | 0.00 | 41 | 1029.7 |
| 20260831011235 | 68 | 287 | 2.0 | 6.0 | 0.00 | 0.00 | 0.00 | 40 | 1029.8 |
| 20260831010336 | 67 | 310 | 2.0 | 6.0 | 0.00 | 0.00 | 0.00 | 40 | 1029.8 |
| 20260831005435 | 68 | 324 | 2.0 | 7.0 | 0.00 | 0.00 | 0.00 | 40 | 1029.8 |
| 20260831004535 | 67 | 298 | 2.0 | 5.0 | 0.00 | 0.00 | 0.00 | 45 | 1029.8 |
| 20260831003635 | 66 | 302 | 2.0 | 5.0 | 0.00 | 0.00 | 0.00 | 42 | 1029.8 |
| 20260831002735 | 66 | 275 | 3.0 | 6.0 | 0.00 | 0.00 | 0.00 | 45 | 1029.9 |
| 20260831001835 | 65 | 295 | 2.0 | 5.0 | 0.00 | 0.00 | 0.00 | 46 | 1029.9 |
| 20260831000935 | 64 | 283 | 3.0 | 6.0 | 0.00 | 0.00 | 0.00 | 49 | 1030.0 |
| 20260831000035 | 63 | 284 | 2.0 | 6.0 | 0.00 | 0.00 | 0.00 | 49 | 1030.0 |
| 20260830235136 | 63 | 270 | 2.0 | 4.0 | 0.00 | 0.00 | 0.00 | 51 | 1029.9 |
| 20260830234235 | 60 | 287 | 1.0 | 3.0 | 0.00 | 0.00 | 0.00 | 53 | 1030.0 |
| 20260830233335 | 60 | 316 | 1.0 | 3.0 | 0.00 | 0.00 | 0.00 | 52 | 1030.0 |
| 20260830231535 | 57 | 296 | 2.0 | 4.0 | 0.00 | 0.00 | 0.00 | 58 | 1030.0 |
| 20260830230636 | 55 | 306 | 1.0 | 4.0 | 0.00 | 0.00 | 0.00 | 60 | 1030.1 |
| 20260830225735 | 51 | 27 | 1.0 | 4.0 | 0.00 | 0.00 | 0.00 | 59 | 1030.1 |
| 20260830224836 | 51 | 67 | 1.0 | 4.0 | 0.00 | 0.00 | 0.00 | 59 | 1030.1 |
| 20260830223935 | 50 | 32 | 0.0 | 2.0 | 0.00 | 0.00 | 0.00 | 58 | 1030.0 |
| 20260830223035 | 50 | 28 | 0.0 | 1.0 | 0.00 | 0.00 | 0.00 | 57 | 1030.1 |
| 20260830222136 | 50 | 0 | 0.0 | 0.0 | 0.00 | 0.00 | 0.00 | 56 | 1030.2 |
| 20260830220335 | 50 | 0 | 0.0 | 0.0 | 0.00 | 0.00 | 0.00 | 55 | 1030.1 |
| 20260830214535 | 51 | 294 | 0.0 | 2.0 | 0.00 | 0.00 | 0.00 | 55 | 1030.0 |
| 20260830212735 | 51 | 304 | 0.0 | 2.0 | 0.00 | 0.00 | 0.00 | 54 | 1030.0 |
| 20260830211836 | 52 | 304 | 0.0 | 2.0 | 0.00 | 0.00 | 0.00 | 53 | 1029.9 |
| 20260830210935 | 53 | 52 | 1.0 | 3.0 | 0.00 | 0.00 | 0.00 | 53 | 1029.9 |
| 20260830210035 | 53 | 34 | 1.0 | 3.0 | 0.00 | 0.00 | 0.00 | 54 | 1029.9 |
| 20260830205134 | 54 | 32 | 1.0 | 4.0 | 0.00 | 0.00 | 0.00 | 54 | 1029.9 |
| 20260830204234 | 54 | 58 | 3.0 | 10.0 | 0.00 | 0.00 | 0.00 | 54 | 1029.9 |
| 20260830203334 | 54 | 102 | 5.0 | 10.0 | 0.00 | 0.00 | 0.00 | 54 | 1029.7 |
| 20260830202434 | 54 | 103 | 7.0 | 13.0 | 0.00 | 0.00 | 0.00 | 54 | 1029.6 |
| 20260830201535 | 54 | 105 | 6.0 | 11.0 | 0.00 | 0.00 | 0.00 | 54 | 1029.6 |
| 20260830195734 | 54 | 103 | 6.0 | 10.0 | 0.00 | 0.00 | 0.00 | 53 | 1029.6 |
| 20260830194834 | 54 | 105 | 6.0 | 11.0 | 0.00 | 0.00 | 0.00 | 53 | 1029.6 |
| 20260830193935 | 54 | 105 | 6.0 | 11.0 | 0.00 | 0.00 | 0.00 | 53 | 1029.5 |
| 20260830193034 | 54 | 104 | 7.0 | 11.0 | 0.00 | 0.00 | 0.00 | 54 | 1029.4 |
| 20260830192134 | 53 | 104 | 7.0 | 12.0 | 0.00 | 0.00 | 0.00 | 54 | 1029.3 |
| 20260830190334 | 53 | 102 | 6.0 | 10.0 | 0.00 | 0.00 | 0.00 | 54 | 1029.4 |
| 20260830185434 | 53 | 100 | 6.0 | 11.0 | 0.00 | 0.00 | 0.00 | 55 | 1029.6 |
| 20260830183634 | 52 | 103 | 6.0 | 11.0 | 0.00 | 0.00 | 0.00 | 57 | 1029.7 |
| 20260830181834 | 51 | 103 | 4.0 | 9.0 | 0.00 | 0.00 | 0.00 | 57 | 1029.7 |
| 20260830180934 | 51 | 104 | 3.0 | 7.0 | 0.00 | 0.00 | 0.00 | 57 | 1029.8 |
| 20260830180034 | 51 | 113 | 2.0 | 4.0 | 0.00 | 0.00 | 0.00 | 57 | 1029.9 |
| 20260830175134 | 51 | 112 | 3.0 | 6.0 | 0.00 | 0.00 | 0.00 | 57 | 1030.0 |
| 20260830174234 | 51 | 115 | 3.0 | 6.0 | 0.00 | 0.00 | 0.00 | 57 | 1030.0 |
| 20260830173334 | 51 | 114 | 4.0 | 8.0 | 0.00 | 0.00 | 0.00 | 57 | 1030.1 |
| 20260830172434 | 51 | 111 | 6.0 | 8.0 | 0.00 | 0.00 | 0.00 | 58 | 1030.2 |
| 20260830171534 | 52 | 111 | 7.0 | 11.0 | 0.00 | 0.00 | 0.00 | 58 | 1030.2 |
| 20260830165734 | 51 | 109 | 6.0 | 9.0 | 0.00 | 0.00 | 0.00 | 59 | 1030.3 |
| 20260830163934 | 51 | 105 | 5.0 | 8.0 | 0.00 | 0.00 | 0.00 | 59 | 1030.6 |
| 20260830163034 | 51 | 98 | 3.0 | 7.0 | 0.00 | 0.00 | 0.00 | 59 | 1030.7 |
| 20260830162134 | 51 | 87 | 1.0 | 3.0 | 0.00 | 0.00 | 0.00 | 58 | 1030.8 |
| 20260830161234 | 51 | 91 | 2.0 | 4.0 | 0.00 | 0.00 | 0.00 | 58 | 1030.8 |
| 20260830160334 | 52 | 112 | 2.0 | 4.0 | 0.00 | 0.00 | 0.00 | 58 | 1030.9 |
| 20260830155434 | 52 | 106 | 2.0 | 6.0 | 0.00 | 0.00 | 0.00 | 58 | 1030.9 |
| 20260830154535 | 52 | 98 | 3.0 | 8.0 | 0.00 | 0.00 | 0.00 | 58 | 1031.0 |
| 20260830153634 | 52 | 90 | 2.0 | 6.0 | 0.00 | 0.00 | 0.00 | 58 | 1031.0 |
| 20260830152734 | 52 | 70 | 3.0 | 8.0 | 0.00 | 0.00 | 0.00 | 58 | 1031.1 |
| 20260830151834 | 52 | 65 | 2.0 | 4.0 | 0.00 | 0.00 | 0.00 | 58 | 1031.1 |
| 20260830150934 | 52 | 54 | 1.0 | 3.0 | 0.00 | 0.00 | 0.00 | 57 | 1031.2 |
| 20260830150034 | 53 | 51 | 2.0 | 5.0 | 0.00 | 0.00 | 0.00 | 58 | 1031.3 |
| 20260830145134 | 53 | 35 | 3.0 | 5.0 | 0.00 | 0.00 | 0.00 | 58 | 1031.2 |
| 20260830144234 | 53 | 59 | 3.0 | 7.0 | 0.00 | 0.00 | 0.00 | 58 | 1031.2 |
| 20260830143334 | 53 | 81 | 5.0 | 10.0 | 0.00 | 0.00 | 0.00 | 59 | 1031.3 |
| 20260830142434 | 53 | 93 | 6.0 | 12.0 | 0.00 | 0.00 | 0.00 | 59 | 1031.2 |
| 20260830141534 | 53 | 86 | 5.0 | 9.0 | 0.00 | 0.00 | 0.00 | 59 | 1031.4 |
| 20260830140635 | 53 | 84 | 5.0 | 8.0 | 0.00 | 0.00 | 0.00 | 59 | 1031.5 |
| 20260830135734 | 53 | 77 | 5.0 | 8.0 | 0.00 | 0.00 | 0.00 | 59 | 1031.7 |
| 20260830134833 | 53 | 81 | 4.0 | 8.0 | 0.00 | 0.00 | 0.00 | 59 | 1031.8 |
| 20260830133934 | 53 | 85 | 5.0 | 9.0 | 0.00 | 0.00 | 0.00 | 59 | 1031.8 |
| 20260830133033 | 53 | 81 | 5.0 | 9.0 | 0.00 | 0.00 | 0.00 | 59 | 1031.7 |
| 20260830132134 | 53 | 80 | 4.0 | 9.0 | 0.00 | 0.00 | 0.00 | 60 | 1031.8 |
| 20260830131233 | 53 | 73 | 2.0 | 6.0 | 0.00 | 0.00 | 0.00 | 60 | 1031.8 |
| 20260830130334 | 52 | 49 | 2.0 | 4.0 | 0.00 | 0.00 | 0.00 | 61 | 1031.8 |
| 20260830125433 | 52 | 39 | 2.0 | 4.0 | 0.00 | 0.00 | 0.00 | 60 | 1031.7 |
| 20260830124533 | 53 | 76 | 0.0 | 2.0 | 0.00 | 0.00 | 0.00 | 60 | 1031.7 |
| 20260830123633 | 53 | 76 | 1.0 | 2.0 | 0.00 | 0.00 | 0.00 | 60 | 1031.6 |
| 20260830122733 | 54 | 77 | 1.0 | 3.0 | 0.00 | 0.00 | 0.00 | 59 | 1031.5 |
| 20260830121834 | 55 | 77 | 2.0 | 4.0 | 0.00 | 0.00 | 0.00 | 58 | 1031.5 |
| 20260830115133 | 56 | 84 | 3.0 | 6.0 | 0.00 | 0.00 | 0.00 | 57 | 1031.4 |
| 20260830114233 | 56 | 79 | 4.0 | 8.0 | 0.00 | 0.00 | 0.00 | 57 | 1031.4 |
| 20260830113333 | 56 | 79 | 4.0 | 8.0 | 0.00 | 0.00 | 0.00 | 56 | 1031.3 |
| 20260830112433 | 57 | 90 | 4.0 | 8.0 | 0.00 | 0.00 | 0.00 | 55 | 1031.2 |
| 20260830111533 | 56 | 97 | 4.0 | 9.0 | 0.00 | 0.00 | 0.00 | 55 | 1031.2 |
| 20260830110633 | 56 | 78 | 2.0 | 4.0 | 0.00 | 0.00 | 0.00 | 54 | 1031.2 |
| 20260830105733 | 56 | 97 | 2.0 | 4.0 | 0.00 | 0.00 | 0.00 | 54 | 1031.2 |
| 20260830103033 | 57 | 96 | 2.0 | 4.0 | 0.00 | 0.00 | 0.00 | 52 | 1031.0 |
| 20260830102133 | 57 | 101 | 2.0 | 3.0 | 0.00 | 0.00 | 0.00 | 52 | 1030.9 |
| 20260830101233 | 58 | 85 | 2.0 | 5.0 | 0.00 | 0.00 | 0.00 | 51 | 1030.8 |
| 20260830100333 | 58 | 90 | 3.0 | 6.0 | 0.00 | 0.00 | 0.00 | 51 | 1030.7 |
| 20260830095433 | 58 | 89 | 2.0 | 6.0 | 0.00 | 0.00 | 0.00 | 53 | 1030.6 |
| 20260830094533 | 58 | 94 | 2.0 | 6.0 | 0.00 | 0.00 | 0.00 | 54 | 1030.6 |
| 20260830093633 | 57 | 105 | 1.0 | 3.0 | 0.00 | 0.00 | 0.00 | 54 | 1030.5 |
| 20260830092733 | 57 | 123 | 0.0 | 2.0 | 0.00 | 0.00 | 0.00 | 53 | 1030.5 |
| 20260830091833 | 58 | 0 | 0.0 | 0.0 | 0.00 | 0.00 | 0.00 | 53 | 1030.5 |
| 20260830090933 | 58 | 239 | 0.0 | 1.0 | 0.00 | 0.00 | 0.00 | 53 | 1030.5 |
| 20260830090033 | 58 | 238 | 0.0 | 2.0 | 0.00 | 0.00 | 0.00 | 53 | 1030.5 |
| 20260830085133 | 58 | 239 | 0.0 | 2.0 | 0.00 | 0.00 | 0.00 | 52 | 1030.5 |
| 20260830084233 | 58 | 238 | 1.0 | 2.0 | 0.00 | 0.00 | 0.00 | 52 | 1030.5 |
| 20260830083333 | 59 | 245 | 2.0 | 4.0 | 0.00 | 0.00 | 0.00 | 52 | 1030.5 |
| 20260830082433 | 60 | 221 | 1.0 | 4.0 | 0.00 | 0.00 | 0.00 | 51 | 1030.5 |
| 20260830081533 | 61 | 244 | 3.0 | 7.0 | 0.00 | 0.00 | 0.00 | 51 | 1030.6 |
| 20260830080633 | 62 | 241 | 3.0 | 7.0 | 0.00 | 0.00 | 0.00 | 50 | 1030.5 |
| 20260830075733 | 62 | 219 | 4.0 | 7.0 | 0.00 | 0.00 | 0.00 | 49 | 1030.4 |
| 20260830074833 | 63 | 218 | 3.0 | 7.0 | 0.00 | 0.00 | 0.00 | 47 | 1030.5 |
| 20260830073933 | 63 | 230 | 4.0 | 6.0 | 0.00 | 0.00 | 0.00 | 46 | 1030.4 |
| 20260830073033 | 64 | 217 | 4.0 | 7.0 | 0.00 | 0.00 | 0.00 | 44 | 1030.4 |
| 20260830072133 | 64 | 212 | 5.0 | 7.0 | 0.00 | 0.00 | 0.00 | 44 | 1030.5 |
| 20260830070332 | 65 | 218 | 4.0 | 7.0 | 0.00 | 0.00 | 0.00 | 41 | 1030.5 |
| 20260830065433 | 65 | 230 | 4.0 | 9.0 | 0.00 | 0.00 | 0.00 | 41 | 1030.5 |
| 20260830064532 | 65 | 215 | 4.0 | 8.0 | 0.00 | 0.00 | 0.00 | 41 | 1030.6 |
| 20260830063632 | 65 | 215 | 5.0 | 8.0 | 0.00 | 0.00 | 0.00 | 41 | 1030.7 |
| 20260830062732 | 65 | 226 | 5.0 | 8.0 | 0.00 | 0.00 | 0.00 | 41 | 1030.7 |
| 20260830061833 | 65 | 234 | 5.0 | 8.0 | 0.00 | 0.00 | 0.00 | 42 | 1030.8 |
| 20260830060032 | 66 | 228 | 5.0 | 10.0 | 0.00 | 0.00 | 0.00 | 42 | 1031.0 |
| 20260830055132 | 65 | 209 | 5.0 | 11.0 | 0.00 | 0.00 | 0.00 | 42 | 1031.1 |
| 20260830054232 | 66 | 217 | 4.0 | 10.0 | 0.00 | 0.00 | 0.00 | 41 | 1031.2 |
| 20260830053332 | 67 | 248 | 5.0 | 12.0 | 0.00 | 0.00 | 0.00 | 40 | 1031.3 |